createdAt,value
2017-01-31T00:00:35.949Z,1006.95
2017-01-31T00:01:46.244Z,1006.94
2017-01-31T00:02:56.924Z,1006.9
2017-01-31T00:04:07.478Z,1006.9
2017-01-31T00:05:17.759Z,1006.84
2017-01-31T00:06:28.057Z,1006.84
2017-01-31T00:07:37.951Z,1006.86
2017-01-31T00:08:48.269Z,1006.83
2017-01-31T00:09:58.823Z,1006.85
2017-01-31T00:11:09.133Z,1006.9
2017-01-31T00:12:19.827Z,1006.9
2017-01-31T00:13:30.509Z,1006.85
2017-01-31T00:14:41.195Z,1006.9
2017-01-31T00:15:52.139Z,1006.9
2017-01-31T00:17:02.441Z,1006.9
2017-01-31T00:18:13.122Z,1006.89
2017-01-31T00:19:23.409Z,1006.89
2017-01-31T00:20:33.301Z,1006.92
2017-01-31T00:21:43.834Z,1006.89
2017-01-31T00:22:53.341Z,1006.9
2017-01-31T00:24:03.636Z,1006.89
2017-01-31T00:25:13.530Z,1006.9
2017-01-31T00:26:23.814Z,1006.86
2017-01-31T00:27:34.778Z,1006.86
2017-01-31T00:28:45.492Z,1006.9
2017-01-31T00:29:55.397Z,1006.88
2017-01-31T00:31:05.290Z,1006.84
2017-01-31T00:32:15.202Z,1006.84
2017-01-31T00:33:26.044Z,1006.84
2017-01-31T00:34:35.558Z,1006.84
2017-01-31T00:35:45.061Z,1006.85
2017-01-31T00:36:55.368Z,1006.83
2017-01-31T00:38:05.668Z,1006.77
2017-01-31T00:39:16.598Z,1006.78
2017-01-31T00:40:26.524Z,1006.79
2017-01-31T00:41:37.212Z,1006.82
2017-01-31T00:42:47.494Z,1006.8
2017-01-31T00:43:57.418Z,1006.8
2017-01-31T00:45:08.745Z,1006.76
2017-01-31T00:46:18.652Z,1006.76
2017-01-31T00:47:28.958Z,1006.75
2017-01-31T00:48:38.854Z,1006.8
2017-01-31T00:49:48.750Z,1006.83
2017-01-31T00:50:58.886Z,1006.85
2017-01-31T00:52:09.176Z,1006.83
2017-01-31T00:53:19.854Z,1006.83
2017-01-31T00:54:29.741Z,1006.82
2017-01-31T00:55:40.424Z,1006.82
2017-01-31T00:56:51.023Z,1006.81
2017-01-31T00:58:00.895Z,1006.79
2017-01-31T00:59:11.192Z,1006.85
2017-01-31T01:00:21.495Z,1006.85
2017-01-31T01:01:31.403Z,1006.88
2017-01-31T01:02:41.549Z,1006.9
2017-01-31T01:03:51.053Z,1006.88
2017-01-31T01:05:01.348Z,1006.88
2017-01-31T01:06:11.258Z,1006.87
2017-01-31T01:07:21.155Z,1006.9
2017-01-31T01:08:30.957Z,1006.9
2017-01-31T01:09:41.646Z,1006.9
2017-01-31T01:10:51.547Z,1006.92
2017-01-31T01:12:01.454Z,1006.93
2017-01-31T01:13:12.135Z,1006.99
2017-01-31T01:14:22.734Z,1007.04
2017-01-31T01:15:33.028Z,1007.01
2017-01-31T01:16:43.325Z,1007.03
2017-01-31T01:17:53.612Z,1007.05
2017-01-31T01:19:03.543Z,1007.05
2017-01-31T01:20:14.472Z,1007.06
2017-01-31T01:21:24.366Z,1007.13
2017-01-31T01:22:35.040Z,1007.14
2017-01-31T01:23:45.327Z,1007.11
2017-01-31T01:24:55.616Z,1007.13
2017-01-31T01:26:06.169Z,1007.18
2017-01-31T01:27:16.464Z,1007.16
2017-01-31T01:28:26.764Z,1007.18
2017-01-31T01:29:36.268Z,1007.15
2017-01-31T01:30:46.569Z,1007.2
2017-01-31T01:31:57.111Z,1007.13
2017-01-31T01:33:07.008Z,1007.13
2017-01-31T01:34:16.901Z,1007.12
2017-01-31T01:35:27.187Z,1007.1
2017-01-31T01:36:37.877Z,1007.09
2017-01-31T01:37:48.426Z,1007.08
2017-01-31T01:38:58.713Z,1007.1
2017-01-31T01:40:09.001Z,1007.11
2017-01-31T01:41:18.899Z,1007.14
2017-01-31T01:42:29.190Z,1007.13
2017-01-31T01:43:39.781Z,1007.14
2017-01-31T01:44:50.114Z,1007.13
2017-01-31T01:46:00.028Z,1007.12
2017-01-31T01:47:10.705Z,1007.1
2017-01-31T01:48:21.019Z,1007.08
2017-01-31T01:49:32.017Z,1007.07
2017-01-31T01:50:41.950Z,1007.09
2017-01-31T01:51:52.638Z,1007.13
2017-01-31T01:53:03.315Z,1007.16
2017-01-31T01:54:13.601Z,1007.15
2017-01-31T01:55:24.148Z,1007.14
2017-01-31T01:56:34.437Z,1007.14
2017-01-31T01:57:44.784Z,1007.16
2017-01-31T01:58:54.690Z,1007.17
2017-01-31T02:00:04.629Z,1007.15
2017-01-31T02:01:15.170Z,1007.1
2017-01-31T02:02:25.855Z,1007.14
2017-01-31T02:03:36.143Z,1007.13
2017-01-31T02:04:45.649Z,1007.12
2017-01-31T02:05:54.761Z,1007.16
2017-01-31T02:07:05.700Z,1007.16
2017-01-31T02:08:15.606Z,1007.17
2017-01-31T02:09:25.499Z,1007.18
2017-01-31T02:10:35.402Z,1007.18
2017-01-31T02:11:46.088Z,1007.22
2017-01-31T02:12:55.835Z,1007.2
2017-01-31T02:14:06.144Z,1007.22
2017-01-31T02:15:16.435Z,1007.24
2017-01-31T02:16:27.118Z,1007.26
2017-01-31T02:17:37.794Z,1007.31
2017-01-31T02:18:47.948Z,1007.27
2017-01-31T02:19:58.235Z,1007.29
2017-01-31T02:21:08.122Z,1007.27
2017-01-31T02:22:18.408Z,1007.26
2017-01-31T02:23:28.694Z,1007.27
2017-01-31T02:24:39.230Z,1007.27
2017-01-31T02:25:49.128Z,1007.29
2017-01-31T02:26:59.422Z,1007.29
2017-01-31T02:28:09.705Z,1007.29
2017-01-31T02:29:20.383Z,1007.3
2017-01-31T02:30:30.552Z,1007.35
2017-01-31T02:31:40.053Z,1007.36
2017-01-31T02:32:50.353Z,1007.36
2017-01-31T02:34:00.257Z,1007.32
2017-01-31T02:35:10.937Z,1007.34
2017-01-31T02:36:21.483Z,1007.29
2017-01-31T02:37:31.371Z,1007.32
2017-01-31T02:38:42.091Z,1007.28
2017-01-31T02:39:52.365Z,1007.34
2017-01-31T02:41:01.892Z,1007.27
2017-01-31T02:42:12.030Z,1007.28
2017-01-31T02:43:21.934Z,1007.29
2017-01-31T02:44:32.224Z,1007.31
2017-01-31T02:45:42.511Z,1007.33
2017-01-31T02:46:52.411Z,1007.33
2017-01-31T02:48:02.565Z,1007.35
2017-01-31T02:49:12.843Z,1007.36
2017-01-31T02:50:23.136Z,1007.34
2017-01-31T02:51:33.046Z,1007.38
2017-01-31T02:52:43.334Z,1007.37
2017-01-31T02:53:53.927Z,1007.38
2017-01-31T02:55:04.225Z,1007.39
2017-01-31T02:56:14.534Z,1007.4
2017-01-31T02:57:24.028Z,1007.4
2017-01-31T02:58:34.321Z,1007.41
2017-01-31T02:59:44.073Z,1007.43
2017-01-31T03:00:54.354Z,1007.45
2017-01-31T03:02:03.860Z,1007.44
2017-01-31T03:03:13.756Z,1007.47
2017-01-31T03:04:23.651Z,1007.52
2017-01-31T03:05:33.794Z,1007.51
2017-01-31T03:06:43.297Z,1007.47
2017-01-31T03:07:53.584Z,1007.47
2017-01-31T03:09:04.269Z,1007.49
2017-01-31T03:10:14.223Z,1007.55
2017-01-31T03:11:24.024Z,1007.5
2017-01-31T03:12:33.917Z,1007.5
2017-01-31T03:13:44.601Z,1007.47
2017-01-31T03:14:54.901Z,1007.49
2017-01-31T03:16:05.195Z,1007.47
2017-01-31T03:17:15.733Z,1007.46
2017-01-31T03:18:25.631Z,1007.44
2017-01-31T03:19:35.918Z,1007.47
2017-01-31T03:20:46.594Z,1007.47
2017-01-31T03:21:56.873Z,1007.47
2017-01-31T03:23:07.407Z,1007.54
2017-01-31T03:24:17.302Z,1007.56
2017-01-31T03:25:27.196Z,1007.57
2017-01-31T03:26:37.093Z,1007.62
2017-01-31T03:27:46.598Z,1007.65
2017-01-31T03:28:57.573Z,1007.68
2017-01-31T03:30:07.887Z,1007.67
2017-01-31T03:31:17.788Z,1007.66
2017-01-31T03:32:28.079Z,1007.73
2017-01-31T03:33:38.357Z,1007.7
2017-01-31T03:34:49.343Z,1007.69
2017-01-31T03:35:59.235Z,1007.69
2017-01-31T03:37:09.926Z,1007.68
2017-01-31T03:38:20.224Z,1007.71
2017-01-31T03:39:30.523Z,1007.69
2017-01-31T03:40:41.055Z,1007.65
2017-01-31T03:41:51.347Z,1007.68
2017-01-31T03:43:01.636Z,1007.67
2017-01-31T03:44:11.981Z,1007.69
2017-01-31T03:45:21.888Z,1007.7
2017-01-31T03:46:32.422Z,1007.73
2017-01-31T03:47:42.713Z,1007.77
2017-01-31T03:48:52.603Z,1007.8
2017-01-31T03:50:02.506Z,1007.82
2017-01-31T03:51:12.797Z,1007.81
2017-01-31T03:52:23.335Z,1007.83
2017-01-31T03:53:33.237Z,1007.79
2017-01-31T03:54:43.131Z,1007.81
2017-01-31T03:55:53.417Z,1007.83
2017-01-31T03:57:03.710Z,1007.83
2017-01-31T03:58:14.253Z,1007.84
2017-01-31T03:59:24.143Z,1007.82
2017-01-31T04:00:34.825Z,1007.79
2017-01-31T04:01:44.721Z,1007.78
2017-01-31T04:02:54.222Z,1007.78
2017-01-31T04:04:05.204Z,1007.82
2017-01-31T04:05:15.513Z,1007.83
2017-01-31T04:06:26.194Z,1007.83
2017-01-31T04:07:36.480Z,1007.81
2017-01-31T04:08:46.762Z,1007.76
2017-01-31T04:09:56.959Z,1007.73
2017-01-31T04:11:06.461Z,1007.74
2017-01-31T04:12:17.140Z,1007.73
2017-01-31T04:13:26.636Z,1007.68
2017-01-31T04:14:36.929Z,1007.71
2017-01-31T04:15:47.857Z,1007.7
2017-01-31T04:16:57.369Z,1007.71
2017-01-31T04:18:07.262Z,1007.7
2017-01-31T04:19:17.936Z,1007.74
2017-01-31T04:20:27.826Z,1007.76
2017-01-31T04:21:38.039Z,1007.74
2017-01-31T04:22:47.939Z,1007.77
2017-01-31T04:23:58.231Z,1007.71
2017-01-31T04:25:08.125Z,1007.77
2017-01-31T04:26:18.019Z,1007.8
2017-01-31T04:27:28.213Z,1007.8
2017-01-31T04:28:38.904Z,1007.78
2017-01-31T04:29:49.187Z,1007.78
2017-01-31T04:30:57.904Z,1007.79
2017-01-31T04:32:07.803Z,1007.81
2017-01-31T04:33:17.956Z,1007.83
2017-01-31T04:34:27.459Z,1007.85
2017-01-31T04:35:38.151Z,1007.88
2017-01-31T04:36:48.432Z,1007.89
2017-01-31T04:37:58.333Z,1007.88
2017-01-31T04:39:08.872Z,1007.99
2017-01-31T04:40:18.772Z,1008.01
2017-01-31T04:41:29.453Z,1007.99
2017-01-31T04:42:38.563Z,1008.03
2017-01-31T04:43:49.246Z,1008.02
2017-01-31T04:44:59.781Z,1008.01
2017-01-31T04:46:10.466Z,1008
2017-01-31T04:47:20.763Z,1008.02
2017-01-31T04:48:30.670Z,1008.02
2017-01-31T04:49:41.363Z,1008
2017-01-31T04:50:51.556Z,1008.02
2017-01-31T04:52:01.855Z,1007.96
2017-01-31T04:53:12.138Z,1007.99
2017-01-31T04:54:22.420Z,1008.02
2017-01-31T04:55:32.716Z,1008
2017-01-31T04:56:42.535Z,1008.06
2017-01-31T04:57:53.217Z,1008.04
2017-01-31T04:59:03.902Z,1008.03
2017-01-31T05:00:13.794Z,1008.08
2017-01-31T05:01:24.090Z,1008.12
2017-01-31T05:02:34.239Z,1008.08
2017-01-31T05:03:44.545Z,1008.1
2017-01-31T05:04:55.230Z,1008.08
2017-01-31T05:06:05.547Z,1008.08
2017-01-31T05:07:15.829Z,1008.11
2017-01-31T05:08:25.968Z,1008.13
2017-01-31T05:09:35.883Z,1008.13
2017-01-31T05:10:46.163Z,1008.12
2017-01-31T05:11:56.848Z,1008.12
2017-01-31T05:13:07.535Z,1008.14
2017-01-31T05:14:18.550Z,1008.17
2017-01-31T05:15:28.440Z,1008.15
2017-01-31T05:16:38.338Z,1008.16
2017-01-31T05:17:49.022Z,1008.17
2017-01-31T05:18:59.730Z,1008.18
2017-01-31T05:20:10.661Z,1008.17
2017-01-31T05:21:21.342Z,1008.18
2017-01-31T05:22:31.634Z,1008.17
2017-01-31T05:23:41.543Z,1008.21
2017-01-31T05:24:51.832Z,1008.25
2017-01-31T05:26:02.791Z,1008.27
2017-01-31T05:27:13.081Z,1008.29
2017-01-31T05:28:22.579Z,1008.33
2017-01-31T05:29:32.475Z,1008.35
2017-01-31T05:30:42.760Z,1008.39
2017-01-31T05:31:53.352Z,1008.39
2017-01-31T05:33:03.249Z,1008.36
2017-01-31T05:34:12.993Z,1008.35
2017-01-31T05:35:23.269Z,1008.38
2017-01-31T05:36:33.779Z,1008.42
2017-01-31T05:37:44.385Z,1008.34
2017-01-31T05:38:54.668Z,1008.37
2017-01-31T05:40:04.555Z,1008.36
2017-01-31T05:41:14.843Z,1008.38
2017-01-31T05:42:25.136Z,1008.43
2017-01-31T05:43:35.278Z,1008.41
2017-01-31T05:44:45.161Z,1008.4
2017-01-31T05:45:55.482Z,1008.44
2017-01-31T05:47:05.376Z,1008.45
2017-01-31T05:48:16.051Z,1008.48
2017-01-31T05:49:27.062Z,1008.51
2017-01-31T05:50:36.171Z,1008.53
2017-01-31T05:51:45.292Z,1008.55
2017-01-31T05:52:55.985Z,1008.54
2017-01-31T05:54:05.879Z,1008.54
2017-01-31T05:55:16.867Z,1008.57
2017-01-31T05:56:27.162Z,1008.61
2017-01-31T05:57:37.854Z,1008.61
2017-01-31T05:58:48.145Z,1008.6
2017-01-31T05:59:58.457Z,1008.66
2017-01-31T06:01:08.652Z,1008.73
2017-01-31T06:02:19.334Z,1008.74
2017-01-31T06:03:30.027Z,1008.8
2017-01-31T06:04:40.324Z,1008.82
2017-01-31T06:05:49.821Z,1008.86
2017-01-31T06:07:00.393Z,1008.9
2017-01-31T06:08:10.532Z,1008.88
2017-01-31T06:09:20.436Z,1008.88
2017-01-31T06:10:30.745Z,1008.96
2017-01-31T06:11:41.030Z,1008.88
2017-01-31T06:12:51.176Z,1008.92
2017-01-31T06:14:01.466Z,1008.98
2017-01-31T06:15:12.145Z,1008.98
2017-01-31T06:16:22.831Z,1008.99
2017-01-31T06:17:32.331Z,1008.98
2017-01-31T06:18:42.087Z,1008.95
2017-01-31T06:19:52.788Z,1008.97
2017-01-31T06:21:03.502Z,1008.99
2017-01-31T06:22:13.000Z,1008.95
2017-01-31T06:23:22.886Z,1008.93
2017-01-31T06:24:33.628Z,1008.99
2017-01-31T06:25:43.135Z,1009
2017-01-31T06:26:53.030Z,1009.02
2017-01-31T06:28:03.331Z,1009.04
2017-01-31T06:29:14.069Z,1009.02
2017-01-31T06:30:24.227Z,1009.05
2017-01-31T06:31:34.523Z,1009.04
2017-01-31T06:32:45.205Z,1009.07
2017-01-31T06:33:55.498Z,1009.1
2017-01-31T06:35:05.396Z,1009.13
2017-01-31T06:36:16.352Z,1009.14
2017-01-31T06:37:26.642Z,1009.14
2017-01-31T06:38:36.143Z,1009.14
2017-01-31T06:39:46.044Z,1009.18
2017-01-31T06:40:56.342Z,1009.19
2017-01-31T06:42:06.909Z,1009.22
2017-01-31T06:43:17.200Z,1009.25
2017-01-31T06:44:26.705Z,1009.25
2017-01-31T06:45:37.386Z,1009.29
2017-01-31T06:46:47.683Z,1009.3
2017-01-31T06:47:58.250Z,1009.29
2017-01-31T06:49:08.536Z,1009.26
2017-01-31T06:50:17.644Z,1009.26
2017-01-31T06:51:27.936Z,1009.34
2017-01-31T06:52:38.225Z,1009.34
2017-01-31T06:53:49.164Z,1009.34
2017-01-31T06:54:59.449Z,1009.39
2017-01-31T06:56:10.141Z,1009.38
2017-01-31T06:57:20.819Z,1009.39
2017-01-31T06:58:31.499Z,1009.36
2017-01-31T06:59:42.042Z,1009.35
2017-01-31T07:00:52.716Z,1009.39
2017-01-31T07:02:02.212Z,1009.4
2017-01-31T07:03:11.714Z,1009.45
2017-01-31T07:04:22.002Z,1009.46
2017-01-31T07:05:32.607Z,1009.47
2017-01-31T07:06:42.109Z,1009.47
2017-01-31T07:07:51.618Z,1009.47
2017-01-31T07:09:01.512Z,1009.45
2017-01-31T07:10:11.797Z,1009.47
2017-01-31T07:11:21.563Z,1009.5
2017-01-31T07:12:31.855Z,1009.51
2017-01-31T07:13:41.358Z,1009.59
2017-01-31T07:14:51.248Z,1009.64
2017-01-31T07:16:01.147Z,1009.66
2017-01-31T07:17:11.001Z,1009.7
2017-01-31T07:18:20.915Z,1009.71
2017-01-31T07:19:30.803Z,1009.72
2017-01-31T07:20:41.095Z,1009.73
2017-01-31T07:21:51.781Z,1009.75
2017-01-31T07:23:01.994Z,1009.79
2017-01-31T07:24:12.677Z,1009.77
2017-01-31T07:25:23.354Z,1009.8
2017-01-31T07:26:33.679Z,1009.82
2017-01-31T07:27:43.962Z,1009.81
2017-01-31T07:28:54.124Z,1009.85
2017-01-31T07:30:04.828Z,1009.85
2017-01-31T07:31:14.339Z,1009.82
2017-01-31T07:32:24.242Z,1009.86
2017-01-31T07:33:34.928Z,1009.88
2017-01-31T07:34:45.465Z,1009.89
2017-01-31T07:35:56.153Z,1009.87
2017-01-31T07:37:06.464Z,1009.87
2017-01-31T07:38:18.342Z,1009.88
2017-01-31T07:39:27.843Z,1009.89
2017-01-31T07:40:38.376Z,1009.9
2017-01-31T07:41:48.670Z,1009.91
2017-01-31T07:42:58.565Z,1009.91
2017-01-31T07:44:08.878Z,1009.94
2017-01-31T07:45:19.176Z,1009.94
2017-01-31T07:46:29.350Z,1009.98
2017-01-31T07:47:40.031Z,1010
2017-01-31T07:48:49.534Z,1009.96
2017-01-31T07:49:59.845Z,1010.04
2017-01-31T07:51:09.800Z,1010.07
2017-01-31T07:52:20.394Z,1010.07
2017-01-31T07:53:30.686Z,1010.09
2017-01-31T07:54:40.210Z,1010.12
2017-01-31T07:55:50.861Z,1010.15
2017-01-31T07:57:01.174Z,1010.15
2017-01-31T07:58:11.727Z,1010.09
2017-01-31T07:59:20.837Z,1010.15
2017-01-31T08:00:31.629Z,1010.2
2017-01-31T08:01:41.134Z,1010.19
2017-01-31T08:02:51.444Z,1010.21
2017-01-31T08:04:02.402Z,1010.25
2017-01-31T08:05:12.700Z,1010.25
2017-01-31T08:06:23.382Z,1010.23
2017-01-31T08:07:34.084Z,1010.31
2017-01-31T08:08:43.588Z,1010.34
2017-01-31T08:09:54.573Z,1010.35
2017-01-31T08:11:04.482Z,1010.36
2017-01-31T08:12:14.777Z,1010.4
2017-01-31T08:13:25.073Z,1010.36
2017-01-31T08:14:35.356Z,1010.35
2017-01-31T08:15:45.914Z,1010.37
2017-01-31T08:16:56.206Z,1010.36
2017-01-31T08:18:06.899Z,1010.37
2017-01-31T08:19:17.191Z,1010.4
2017-01-31T08:20:27.484Z,1010.38
2017-01-31T08:26:00.110Z,1010.46
2017-01-31T08:27:09.229Z,1010.46
2017-01-31T08:28:18.356Z,1010.52
2017-01-31T08:29:27.852Z,1010.51
2017-01-31T08:34:43.845Z,1010.53
2017-01-31T08:35:54.190Z,1010.52
2017-01-31T08:37:04.480Z,1010.53
2017-01-31T08:38:14.399Z,1010.56
2017-01-31T08:43:58.451Z,1010.65
2017-01-31T08:45:08.751Z,1010.68
2017-01-31T08:46:19.871Z,1010.71
2017-01-31T08:47:30.178Z,1010.75
2017-01-31T08:48:40.084Z,1010.78
2017-01-31T08:49:50.620Z,1010.74
2017-01-31T08:51:00.522Z,1010.76
2017-01-31T08:52:10.825Z,1010.75
2017-01-31T08:53:21.127Z,1010.72
2017-01-31T08:54:31.832Z,1010.71
2017-01-31T08:55:42.397Z,1010.74
2017-01-31T08:56:52.866Z,1010.71
2017-01-31T08:58:03.519Z,1010.73
2017-01-31T08:59:14.416Z,1010.72
2017-01-31T09:00:24.714Z,1010.78
2017-01-31T09:01:35.265Z,1010.8
2017-01-31T09:02:45.178Z,1010.8
2017-01-31T09:03:55.472Z,1010.81
2017-01-31T09:05:05.771Z,1010.8
2017-01-31T09:06:16.077Z,1010.86
2017-01-31T09:07:26.686Z,1010.86
2017-01-31T09:08:36.205Z,1010.85
2017-01-31T09:09:46.502Z,1010.81
2017-01-31T09:10:56.412Z,1010.83
2017-01-31T09:12:07.110Z,1010.82
2017-01-31T09:13:17.737Z,1010.85
2017-01-31T09:14:27.255Z,1010.83
2017-01-31T09:15:37.783Z,1010.86
2017-01-31T09:16:48.480Z,1010.87
2017-01-31T09:17:58.789Z,1010.91
2017-01-31T09:19:09.387Z,1010.89
2017-01-31T09:20:20.075Z,1010.93
2017-01-31T09:21:30.411Z,1010.89
2017-01-31T09:22:40.718Z,1010.96
2017-01-31T09:23:51.413Z,1010.96
2017-01-31T09:25:01.177Z,1010.99
2017-01-31T09:26:11.073Z,1011.01
2017-01-31T09:27:21.006Z,1011.03
2017-01-31T09:28:31.317Z,1011.03
2017-01-31T09:29:41.223Z,1011.05
2017-01-31T09:30:52.016Z,1011.06
2017-01-31T09:32:02.324Z,1011.09
2017-01-31T09:33:12.602Z,1011.08
2017-01-31T09:34:22.923Z,1011.08
2017-01-31T09:35:33.606Z,1011.09
2017-01-31T09:36:43.801Z,1011.1
2017-01-31T09:37:53.314Z,1011.12
2017-01-31T09:39:03.628Z,1011.16
2017-01-31T09:40:14.343Z,1011.15
2017-01-31T09:41:24.642Z,1011.17
2017-01-31T09:42:34.395Z,1011.13
2017-01-31T09:43:44.713Z,1011.17
2017-01-31T09:44:54.629Z,1011.2
2017-01-31T09:46:04.942Z,1011.16
2017-01-31T09:47:14.851Z,1011.19
2017-01-31T09:48:25.799Z,1011.2
2017-01-31T09:49:36.086Z,1011.18
2017-01-31T09:50:46.387Z,1011.18
2017-01-31T09:51:56.292Z,1011.23
2017-01-31T09:53:05.797Z,1011.24
2017-01-31T09:54:16.003Z,1011.24
2017-01-31T09:55:26.346Z,1011.23
2017-01-31T09:56:36.246Z,1011.23
2017-01-31T09:57:45.749Z,1011.2
2017-01-31T09:58:56.437Z,1011.2
2017-01-31T10:00:07.371Z,1011.21
2017-01-31T10:01:18.057Z,1011.2
2017-01-31T10:02:28.382Z,1011.21
2017-01-31T10:03:37.895Z,1011.21
2017-01-31T10:04:48.605Z,1011.23
2017-01-31T10:05:59.170Z,1011.27
2017-01-31T10:07:09.481Z,1011.27
2017-01-31T10:08:20.174Z,1011.23
2017-01-31T10:09:30.849Z,1011.26
2017-01-31T10:10:41.551Z,1011.29
2017-01-31T10:11:52.545Z,1011.27
2017-01-31T10:13:02.460Z,1011.26
2017-01-31T10:14:12.373Z,1011.26
2017-01-31T10:15:22.673Z,1011.26
2017-01-31T10:16:32.186Z,1011.29
2017-01-31T10:17:42.780Z,1011.29
2017-01-31T10:18:53.473Z,1011.32
2017-01-31T10:20:03.529Z,1011.32
2017-01-31T10:21:13.537Z,1011.33
2017-01-31T10:22:24.232Z,1011.38
2017-01-31T10:23:34.370Z,1011.37
2017-01-31T10:24:45.053Z,1011.42
2017-01-31T10:25:54.590Z,1011.42
2017-01-31T10:27:04.112Z,1011.43
2017-01-31T10:28:13.608Z,1011.48
2017-01-31T10:29:23.799Z,1011.49
2017-01-31T10:30:34.494Z,1011.51
2017-01-31T10:31:44.780Z,1011.49
2017-01-31T10:32:55.072Z,1011.51
2017-01-31T10:34:04.972Z,1011.51
2017-01-31T10:35:15.510Z,1011.57
2017-01-31T10:36:26.196Z,1011.56
2017-01-31T10:37:36.487Z,1011.58
2017-01-31T10:38:46.381Z,1011.6
2017-01-31T10:39:56.277Z,1011.6
2017-01-31T10:41:06.809Z,1011.64
2017-01-31T10:42:16.702Z,1011.6
2017-01-31T10:43:26.210Z,1011.63
2017-01-31T10:44:35.730Z,1011.66
2017-01-31T10:45:46.424Z,1011.64
2017-01-31T10:46:57.403Z,1011.63
2017-01-31T10:48:06.599Z,1011.65
2017-01-31T10:49:16.886Z,1011.69
2017-01-31T10:50:27.175Z,1011.66
2017-01-31T10:51:36.688Z,1011.69
2017-01-31T10:52:46.910Z,1011.67
2017-01-31T10:53:57.211Z,1011.64
2017-01-31T10:55:07.524Z,1011.68
2017-01-31T10:56:17.834Z,1011.67
2017-01-31T10:57:28.123Z,1011.67
2017-01-31T10:58:38.338Z,1011.68
2017-01-31T10:59:49.039Z,1011.7
2017-01-31T11:00:58.938Z,1011.66
2017-01-31T11:02:09.260Z,1011.71
2017-01-31T11:03:19.576Z,1011.73
2017-01-31T11:04:30.542Z,1011.71
2017-01-31T11:05:41.231Z,1011.73
2017-01-31T11:06:51.519Z,1011.71
2017-01-31T11:08:01.423Z,1011.73
2017-01-31T11:09:11.319Z,1011.69
2017-01-31T11:10:22.307Z,1011.68
2017-01-31T11:11:32.606Z,1011.66
2017-01-31T11:12:43.301Z,1011.69
2017-01-31T11:13:52.809Z,1011.69
2017-01-31T11:15:03.111Z,1011.75
2017-01-31T11:16:13.682Z,1011.7
2017-01-31T11:17:23.196Z,1011.72
2017-01-31T11:18:32.705Z,1011.75
2017-01-31T11:19:42.994Z,1011.83
2017-01-31T11:20:52.915Z,1011.79
2017-01-31T11:22:03.063Z,1011.83
2017-01-31T11:23:13.762Z,1011.86
2017-01-31T11:24:24.461Z,1011.83
2017-01-31T11:25:34.357Z,1011.81
2017-01-31T11:26:45.069Z,1011.84
2017-01-31T11:27:55.624Z,1011.83
2017-01-31T11:29:05.914Z,1011.85
2017-01-31T11:30:15.828Z,1011.89
2017-01-31T11:31:26.173Z,1011.84
2017-01-31T11:32:36.878Z,1011.85
2017-01-31T11:33:47.025Z,1011.9
2017-01-31T11:34:56.939Z,1011.89
2017-01-31T11:36:07.675Z,1011.91
2017-01-31T11:37:17.969Z,1011.92
2017-01-31T11:38:27.873Z,1011.9
2017-01-31T11:39:37.643Z,1011.93
2017-01-31T11:40:48.332Z,1011.92
2017-01-31T11:41:58.232Z,1011.92
2017-01-31T11:43:08.528Z,1011.93
2017-01-31T11:44:18.099Z,1011.97
2017-01-31T11:45:29.437Z,1011.93
2017-01-31T11:46:39.748Z,1011.97
2017-01-31T11:47:50.440Z,1011.98
2017-01-31T11:49:00.338Z,1012
2017-01-31T11:50:11.030Z,1012.03
2017-01-31T11:51:21.573Z,1012.06
2017-01-31T11:52:32.260Z,1012.02
2017-01-31T11:53:42.958Z,1012.06
2017-01-31T11:54:53.649Z,1012.07
2017-01-31T11:56:03.940Z,1012.1
2017-01-31T11:57:14.537Z,1012.12
2017-01-31T11:58:24.884Z,1012.13
2017-01-31T11:59:35.575Z,1012.14
2017-01-31T12:00:45.475Z,1012.12
2017-01-31T12:01:55.787Z,1012.12
2017-01-31T12:03:05.589Z,1012.07
2017-01-31T12:04:15.879Z,1012.06
2017-01-31T12:05:25.390Z,1012.06
2017-01-31T12:06:35.701Z,1012.06
2017-01-31T12:07:45.604Z,1012.06
2017-01-31T12:08:56.201Z,1012.11
2017-01-31T12:10:06.885Z,1012.13
2017-01-31T12:11:16.394Z,1012.15
2017-01-31T12:12:25.906Z,1012.15
2017-01-31T12:13:36.589Z,1012.15
2017-01-31T12:14:47.533Z,1012.16
2017-01-31T12:15:57.434Z,1012.18
2017-01-31T12:17:08.141Z,1012.21
2017-01-31T12:18:18.436Z,1012.22
2017-01-31T12:19:29.149Z,1012.22
2017-01-31T12:20:39.747Z,1012.23
2017-01-31T12:21:49.656Z,1012.23
2017-01-31T12:23:00.346Z,1012.2
2017-01-31T12:24:10.688Z,1012.2
2017-01-31T12:25:20.577Z,1012.21
2017-01-31T12:26:31.175Z,1012.24
2017-01-31T12:27:41.470Z,1012.23
2017-01-31T12:28:51.775Z,1012.26
2017-01-31T12:30:01.690Z,1012.27
2017-01-31T12:31:11.586Z,1012.3
2017-01-31T12:32:21.790Z,1012.32
2017-01-31T12:33:31.695Z,1012.3
2017-01-31T12:34:41.996Z,1012.3
2017-01-31T12:35:51.894Z,1012.25
2017-01-31T12:37:02.213Z,1012.21
2017-01-31T12:38:12.421Z,1012.23
2017-01-31T12:39:22.723Z,1012.22
2017-01-31T12:40:33.023Z,1012.23
2017-01-31T12:41:43.720Z,1012.23
2017-01-31T12:42:54.006Z,1012.23
2017-01-31T12:44:04.552Z,1012.33
2017-01-31T12:45:14.058Z,1012.36
2017-01-31T12:46:24.343Z,1012.37
2017-01-31T12:47:34.642Z,1012.35
2017-01-31T12:48:45.332Z,1012.35
2017-01-31T12:49:56.326Z,1012.33
2017-01-31T12:51:06.623Z,1012.35
2017-01-31T12:52:16.957Z,1012.4
2017-01-31T12:53:27.650Z,1012.36
2017-01-31T12:54:37.545Z,1012.39
2017-01-31T12:55:48.094Z,1012.39
2017-01-31T12:56:58.772Z,1012.42
2017-01-31T12:58:09.075Z,1012.42
2017-01-31T12:59:19.371Z,1012.48
2017-01-31T13:00:29.278Z,1012.44
2017-01-31T13:01:39.872Z,1012.42
2017-01-31T13:02:49.806Z,1012.46
2017-01-31T13:04:00.101Z,1012.41
2017-01-31T13:05:10.802Z,1012.41
2017-01-31T13:06:21.105Z,1012.38
2017-01-31T13:07:31.655Z,1012.42
2017-01-31T13:08:42.339Z,1012.41
2017-01-31T13:09:52.264Z,1012.41
2017-01-31T13:11:02.161Z,1012.46
2017-01-31T13:12:11.680Z,1012.47
2017-01-31T13:13:21.831Z,1012.5
2017-01-31T13:14:31.341Z,1012.54
2017-01-31T13:15:40.852Z,1012.54
2017-01-31T13:16:50.361Z,1012.55
2017-01-31T13:18:00.277Z,1012.53
2017-01-31T13:19:10.421Z,1012.51
2017-01-31T13:20:20.733Z,1012.54
2017-01-31T13:21:31.419Z,1012.58
2017-01-31T13:22:41.318Z,1012.61
2017-01-31T13:23:51.219Z,1012.61
2017-01-31T13:25:02.224Z,1012.62
2017-01-31T13:26:12.570Z,1012.68
2017-01-31T13:27:23.422Z,1012.68
2017-01-31T13:28:34.102Z,1012.69
2017-01-31T13:29:44.399Z,1012.74
2017-01-31T13:30:54.954Z,1012.75
2017-01-31T13:32:04.865Z,1012.71
2017-01-31T13:33:15.543Z,1012.71
2017-01-31T13:34:25.455Z,1012.72
2017-01-31T13:35:35.768Z,1012.66
2017-01-31T13:36:47.023Z,1012.73
2017-01-31T13:37:57.320Z,1012.73
2017-01-31T13:39:07.692Z,1012.7
2017-01-31T13:40:18.371Z,1012.67
2017-01-31T13:41:27.872Z,1012.7
2017-01-31T13:42:38.495Z,1012.75
2017-01-31T13:43:48.789Z,1012.76
2017-01-31T13:44:59.080Z,1012.76
2017-01-31T13:46:08.993Z,1012.73
2017-01-31T13:47:18.889Z,1012.75
2017-01-31T13:48:29.451Z,1012.78
2017-01-31T13:49:39.766Z,1012.76
2017-01-31T13:50:50.064Z,1012.78
2017-01-31T13:52:00.356Z,1012.75
2017-01-31T13:53:10.270Z,1012.79
2017-01-31T13:54:21.205Z,1012.83
2017-01-31T13:55:30.709Z,1012.78
2017-01-31T13:56:41.016Z,1012.8
2017-01-31T13:57:52.103Z,1012.81
2017-01-31T13:59:02.787Z,1012.82
2017-01-31T14:00:12.981Z,1012.82
2017-01-31T14:01:22.892Z,1012.8
2017-01-31T14:02:32.413Z,1012.83
2017-01-31T14:03:43.113Z,1012.82
2017-01-31T14:04:53.409Z,1012.83
2017-01-31T14:06:03.163Z,1012.88
2017-01-31T14:07:13.057Z,1012.9
2017-01-31T14:08:22.952Z,1012.9
2017-01-31T14:09:32.853Z,1012.85
2017-01-31T14:10:42.752Z,1012.89
2017-01-31T14:11:52.905Z,1012.87
2017-01-31T14:13:03.594Z,1012.9
2017-01-31T14:14:14.308Z,1012.94
2017-01-31T14:15:23.429Z,1012.98
2017-01-31T14:16:33.342Z,1012.99
2017-01-31T14:17:43.555Z,1013.01
2017-01-31T14:18:53.848Z,1013.05
2017-01-31T14:20:04.148Z,1013.03
2017-01-31T14:21:14.456Z,1013.05
2017-01-31T14:22:24.405Z,1013.08
2017-01-31T14:23:34.170Z,1013.09
2017-01-31T14:24:44.084Z,1013.09
2017-01-31T14:25:53.987Z,1013.1